sensor_id;sensor_type;location;lat;lon;timestamp;pressure;altitude;pressure_sealevel;temperature;humidity
44297;BME280;51842;47.450;8.654;2023-03-26T00:01:23;95184.34;;;6.87;88.48
44297;BME280;51842;47.450;8.654;2023-03-26T00:03:52;95184.34;;;6.87;88.41
44297;BME280;51842;47.450;8.654;2023-03-26T00:06:36;95176.34;;;6.82;88.95
44297;BME280;51842;47.450;8.654;2023-03-26T00:09:10;95176.34;;;6.82;88.72
44297;BME280;51842;47.450;8.654;2023-03-26T00:11:37;95176.34;;;6.82;88.40
44297;BME280;51842;47.450;8.654;2023-03-26T00:14:03;95168.31;;;6.77;87.60
44297;BME280;51842;47.450;8.654;2023-03-26T00:16:32;95179.19;;;6.75;88.93
44297;BME280;51842;47.450;8.654;2023-03-26T00:18:59;95164.88;;;6.76;88.95
44297;BME280;51842;47.450;8.654;2023-03-26T00:21:29;95168.28;;;6.71;88.84
44297;BME280;51842;47.450;8.654;2023-03-26T00:24:06;95164.34;;;6.74;89.15
44297;BME280;51842;47.450;8.654;2023-03-26T00:26:35;95167.25;;;6.72;89.04
44297;BME280;51842;47.450;8.654;2023-03-26T00:29:04;95165.38;;;6.73;88.63
44297;BME280;51842;47.450;8.654;2023-03-26T00:31:32;95158.75;;;6.70;88.60
44297;BME280;51842;47.450;8.654;2023-03-26T00:33:58;95162.94;;;6.66;88.85
44297;BME280;51842;47.450;8.654;2023-03-26T00:36:28;95166.66;;;6.65;88.91
44297;BME280;51842;47.450;8.654;2023-03-26T00:38:54;95161.34;;;6.65;89.63
44297;BME280;51842;47.450;8.654;2023-03-26T00:41:24;95159.75;;;6.64;89.57
44297;BME280;51842;47.450;8.654;2023-03-26T00:43:56;95151.75;;;6.59;89.79
44297;BME280;51842;47.450;8.654;2023-03-26T00:46:28;95154.41;;;6.59;89.62
44297;BME280;51842;47.450;8.654;2023-03-26T00:48:55;95154.66;;;6.58;89.07
44297;BME280;51842;47.450;8.654;2023-03-26T00:51:24;95150.47;;;6.62;88.91
44297;BME280;51842;47.450;8.654;2023-03-26T00:53:51;95150.19;;;6.58;89.13
44297;BME280;51842;47.450;8.654;2023-03-26T00:56:18;95152.00;;;6.58;88.30
44297;BME280;51842;47.450;8.654;2023-03-26T00:58:45;95148.31;;;6.59;88.82
44297;BME280;51842;47.450;8.654;2023-03-26T01:01:22;95137.47;;;6.60;88.63
44297;BME280;51842;47.450;8.654;2023-03-26T01:03:54;95135.09;;;6.59;89.06
44297;BME280;51842;47.450;8.654;2023-03-26T01:06:31;95135.28;;;6.52;89.73
44297;BME280;51842;47.450;8.654;2023-03-26T01:09:21;95124.16;;;6.50;90.32
44297;BME280;51842;47.450;8.654;2023-03-26T01:11:50;95134.97;;;6.48;90.94
44297;BME280;51842;47.450;8.654;2023-03-26T01:14:23;95129.16;;;6.46;90.50
44297;BME280;51842;47.450;8.654;2023-03-26T01:17:01;95128.28;;;6.41;90.78
44297;BME280;51842;47.450;8.654;2023-03-26T01:20:21;95106.31;;;6.40;91.27
44297;BME280;51842;47.450;8.654;2023-03-26T01:23:01;95110.81;;;6.40;91.30
44297;BME280;51842;47.450;8.654;2023-03-26T01:25:40;95107.06;;;6.36;90.93
44297;BME280;51842;47.450;8.654;2023-03-26T01:28:11;95101.75;;;6.31;91.46
44297;BME280;51842;47.450;8.654;2023-03-26T01:30:56;95087.44;;;6.32;91.20
44297;BME280;51842;47.450;8.654;2023-03-26T01:36:20;95077.31;;;6.23;92.35
44297;BME280;51842;47.450;8.654;2023-03-26T01:39:14;95073.84;;;6.18;91.93
44297;BME280;51842;47.450;8.654;2023-03-26T01:42:01;95067.69;;;6.12;92.49
44297;BME280;51842;47.450;8.654;2023-03-26T01:44:49;95065.25;;;6.06;93.01
44297;BME280;51842;47.450;8.654;2023-03-26T01:47:20;95053.53;;;6.01;93.19
44297;BME280;51842;47.450;8.654;2023-03-26T01:49:46;95052.38;;;5.92;93.90
44297;BME280;51842;47.450;8.654;2023-03-26T01:52:21;95052.63;;;5.91;94.03
44297;BME280;51842;47.450;8.654;2023-03-26T01:54:51;95050.56;;;5.93;94.13
44297;BME280;51842;47.450;8.654;2023-03-26T01:58:29;95044.13;;;5.89;94.05
44297;BME280;51842;47.450;8.654;2023-03-26T02:01:28;95029.50;;;5.81;94.57
44297;BME280;51842;47.450;8.654;2023-03-26T02:09:58;95006.16;;;5.73;94.84
44297;BME280;51842;47.450;8.654;2023-03-26T02:12:28;95002.69;;;5.67;94.41
44297;BME280;51842;47.450;8.654;2023-03-26T02:14:54;95007.47;;;5.70;94.50
44297;BME280;51842;47.450;8.654;2023-03-26T02:17:20;94990.78;;;5.70;94.55
44297;BME280;51842;47.450;8.654;2023-03-26T02:19:49;94988.34;;;5.63;94.58
44297;BME280;51842;47.450;8.654;2023-03-26T02:22:16;94984.72;;;5.69;94.60
44297;BME280;51842;47.450;8.654;2023-03-26T02:24:43;94996.09;;;5.70;94.09
44297;BME280;51842;47.450;8.654;2023-03-26T02:27:09;94980.00;;;5.71;93.75
44297;BME280;51842;47.450;8.654;2023-03-26T02:29:38;94975.50;;;5.72;95.01
44297;BME280;51842;47.450;8.654;2023-03-26T02:32:08;94960.72;;;5.76;94.73
44297;BME280;51842;47.450;8.654;2023-03-26T02:34:41;94953.06;;;5.74;94.49
44297;BME280;51842;47.450;8.654;2023-03-26T02:37:09;94953.09;;;5.79;94.32
44297;BME280;51842;47.450;8.654;2023-03-26T02:39:35;94943.03;;;5.76;94.02
44297;BME280;51842;47.450;8.654;2023-03-26T02:42:01;94934.56;;;5.74;92.41
44297;BME280;51842;47.450;8.654;2023-03-26T02:44:27;94928.03;;;5.82;93.72
44297;BME280;51842;47.450;8.654;2023-03-26T02:46:53;94927.28;;;5.87;93.35
44297;BME280;51842;47.450;8.654;2023-03-26T02:49:19;94916.09;;;5.79;94.00
44297;BME280;51842;47.450;8.654;2023-03-26T02:51:44;94916.94;;;5.85;93.91
44297;BME280;51842;47.450;8.654;2023-03-26T02:54:10;94923.78;;;5.81;94.60
44297;BME280;51842;47.450;8.654;2023-03-26T02:56:36;94918.81;;;5.85;94.46
44297;BME280;51842;47.450;8.654;2023-03-26T02:59:02;94905.53;;;5.79;94.45
44297;BME280;51842;47.450;8.654;2023-03-26T03:01:28;94903.22;;;5.83;94.03
44297;BME280;51842;47.450;8.654;2023-03-26T03:04:01;94894.47;;;5.83;94.67
44297;BME280;51842;47.450;8.654;2023-03-26T03:06:29;94891.03;;;5.82;95.14
44297;BME280;51842;47.450;8.654;2023-03-26T03:08:55;94890.50;;;5.80;94.87
44297;BME280;51842;47.450;8.654;2023-03-26T03:11:21;94893.38;;;5.78;95.52
44297;BME280;51842;47.450;8.654;2023-03-26T03:13:50;94874.63;;;5.80;96.08
44297;BME280;51842;47.450;8.654;2023-03-26T03:16:16;94886.25;;;5.79;96.63
44297;BME280;51842;47.450;8.654;2023-03-26T03:18:42;94902.06;;;5.74;97.63
44297;BME280;51842;47.450;8.654;2023-03-26T03:21:08;94888.09;;;5.78;97.04
44297;BME280;51842;47.450;8.654;2023-03-26T03:23:35;94888.88;;;5.79;97.29
44297;BME280;51842;47.450;8.654;2023-03-26T03:26:01;94882.28;;;5.82;97.10
44297;BME280;51842;47.450;8.654;2023-03-26T03:28:27;94882.28;;;5.82;96.77
44297;BME280;51842;47.450;8.654;2023-03-26T03:30:53;94876.50;;;5.85;96.66
44297;BME280;51842;47.450;8.654;2023-03-26T03:33:23;94877.28;;;5.80;99.64
44297;BME280;51842;47.450;8.654;2023-03-26T03:35:49;94863.16;;;5.69;100.00
44297;BME280;51842;47.450;8.654;2023-03-26T03:38:17;94871.94;;;5.75;100.00
44297;BME280;51842;47.450;8.654;2023-03-26T03:40:44;94869.28;;;5.75;100.00
44297;BME280;51842;47.450;8.654;2023-03-26T03:43:10;94866.09;;;5.73;100.00
44297;BME280;51842;47.450;8.654;2023-03-26T03:45:36;94862.66;;;5.72;99.90
44297;BME280;51842;47.450;8.654;2023-03-26T03:48:02;94854.16;;;5.65;100.00
44297;BME280;51842;47.450;8.654;2023-03-26T03:50:28;94857.84;;;5.64;100.00
44297;BME280;51842;47.450;8.654;2023-03-26T03:52:54;94845.44;;;5.65;100.00
44297;BME280;51842;47.450;8.654;2023-03-26T03:55:20;94855.09;;;5.54;100.00
44297;BME280;51842;47.450;8.654;2023-03-26T03:57:48;94856.44;;;5.56;100.00
44297;BME280;51842;47.450;8.654;2023-03-26T04:00:16;94846.63;;;5.52;100.00
44297;BME280;51842;47.450;8.654;2023-03-26T04:02:43;94843.19;;;5.51;100.00
44297;BME280;51842;47.450;8.654;2023-03-26T04:05:12;94842.09;;;5.47;100.00
44297;BME280;51842;47.450;8.654;2023-03-26T04:07:38;94841.31;;;5.47;100.00
44297;BME280;51842;47.450;8.654;2023-03-26T04:10:08;94838.09;;;5.45;100.00
44297;BME280;51842;47.450;8.654;2023-03-26T04:12:34;94831.78;;;5.46;100.00
44297;BME280;51842;47.450;8.654;2023-03-26T04:15:00;94825.72;;;5.45;100.00
44297;BME280;51842;47.450;8.654;2023-03-26T04:17:26;94821.22;;;5.46;100.00
44297;BME280;51842;47.450;8.654;2023-03-26T04:19:55;94813.53;;;5.44;100.00
44297;BME280;51842;47.450;8.654;2023-03-26T04:22:22;94805.59;;;5.39;100.00
44297;BME280;51842;47.450;8.654;2023-03-26T04:24:48;94794.66;;;5.30;100.00
44297;BME280;51842;47.450;8.654;2023-03-26T04:27:20;94799.44;;;5.33;100.00
44297;BME280;51842;47.450;8.654;2023-03-26T04:29:50;94789.13;;;5.32;100.00
44297;BME280;51842;47.450;8.654;2023-03-26T04:32:25;94770.31;;;5.23;100.00
44297;BME280;51842;47.450;8.654;2023-03-26T04:34:56;94768.00;;;5.32;100.00
44297;BME280;51842;47.450;8.654;2023-03-26T04:37:35;94778.31;;;5.33;100.00
44297;BME280;51842;47.450;8.654;2023-03-26T04:40:13;94777.72;;;5.26;100.00
44297;BME280;51842;47.450;8.654;2023-03-26T04:42:39;94772.00;;;5.34;100.00
44297;BME280;51842;47.450;8.654;2023-03-26T04:45:16;94774.41;;;5.41;100.00
44297;BME280;51842;47.450;8.654;2023-03-26T04:47:42;94763.81;;;5.36;100.00
44297;BME280;51842;47.450;8.654;2023-03-26T04:50:11;94768.91;;;5.43;100.00
44297;BME280;51842;47.450;8.654;2023-03-26T04:52:37;94766.53;;;5.46;100.00
44297;BME280;51842;47.450;8.654;2023-03-26T04:55:26;94763.63;;;5.48;100.00
44297;BME280;51842;47.450;8.654;2023-03-26T04:57:57;94762.59;;;5.49;100.00
44297;BME280;51842;47.450;8.654;2023-03-26T05:00:31;94754.41;;;5.50;100.00
44297;BME280;51842;47.450;8.654;2023-03-26T05:02:57;94748.28;;;5.45;100.00
44297;BME280;51842;47.450;8.654;2023-03-26T05:05:26;94735.31;;;5.38;100.00
44297;BME280;51842;47.450;8.654;2023-03-26T05:07:54;94734.78;;;5.41;100.00
44297;BME280;51842;47.450;8.654;2023-03-26T05:10:21;94741.38;;;5.39;100.00
44297;BME280;51842;47.450;8.654;2023-03-26T05:12:48;94735.06;;;5.40;100.00
44297;BME280;51842;47.450;8.654;2023-03-26T05:15:15;94731.91;;;5.43;100.00
44297;BME280;51842;47.450;8.654;2023-03-26T05:17:42;94727.16;;;5.45;100.00
44297;BME280;51842;47.450;8.654;2023-03-26T05:20:24;94719.25;;;5.45;100.00
44297;BME280;51842;47.450;8.654;2023-03-26T05:22:52;94717.94;;;5.47;100.00
44297;BME280;51842;47.450;8.654;2023-03-26T05:25:18;94714.22;;;5.43;100.00
44297;BME280;51842;47.450;8.654;2023-03-26T05:27:45;94713.66;;;5.41;100.00
44297;BME280;51842;47.450;8.654;2023-03-26T05:30:18;94699.13;;;5.39;100.00
44297;BME280;51842;47.450;8.654;2023-03-26T05:32:47;94694.16;;;5.42;100.00
44297;BME280;51842;47.450;8.654;2023-03-26T05:35:15;94688.88;;;5.42;99.66
44297;BME280;51842;47.450;8.654;2023-03-26T05:37:43;94688.09;;;5.47;99.75
44297;BME280;51842;47.450;8.654;2023-03-26T05:40:12;94697.09;;;5.51;99.71
44297;BME280;51842;47.450;8.654;2023-03-26T05:42:40;94688.38;;;5.50;100.00
44297;BME280;51842;47.450;8.654;2023-03-26T05:45:10;94702.66;;;5.54;99.86
44297;BME280;51842;47.450;8.654;2023-03-26T05:47:37;94697.66;;;5.53;99.49
44297;BME280;51842;47.450;8.654;2023-03-26T05:50:05;94704.28;;;5.55;99.34
44297;BME280;51842;47.450;8.654;2023-03-26T05:52:32;94701.63;;;5.55;99.76
44297;BME280;51842;47.450;8.654;2023-03-26T05:54:58;94702.72;;;5.60;99.69
44297;BME280;51842;47.450;8.654;2023-03-26T05:57:24;94701.91;;;5.59;100.00
44297;BME280;51842;47.450;8.654;2023-03-26T05:59:53;94694.00;;;5.59;100.00
44297;BME280;51842;47.450;8.654;2023-03-26T06:02:21;94692.13;;;5.60;100.00
44297;BME280;51842;47.450;8.654;2023-03-26T06:04:47;94688.13;;;5.52;100.00
44297;BME280;51842;47.450;8.654;2023-03-26T06:07:13;94685.00;;;5.55;100.00
44297;BME280;51842;47.450;8.654;2023-03-26T06:09:41;94672.50;;;5.45;100.00
44297;BME280;51842;47.450;8.654;2023-03-26T06:12:10;94661.84;;;5.35;100.00
44297;BME280;51842;47.450;8.654;2023-03-26T06:14:36;94640.72;;;5.35;100.00
44297;BME280;51842;47.450;8.654;2023-03-26T06:17:03;94619.09;;;5.38;100.00
44297;BME280;51842;47.450;8.654;2023-03-26T06:19:28;94605.66;;;5.40;100.00
44297;BME280;51842;47.450;8.654;2023-03-26T06:21:54;94599.84;;;5.43;100.00
44297;BME280;51842;47.450;8.654;2023-03-26T06:24:20;94612.28;;;5.47;100.00
44297;BME280;51842;47.450;8.654;2023-03-26T06:26:47;94615.47;;;5.49;100.00
44297;BME280;51842;47.450;8.654;2023-03-26T06:29:14;94623.69;;;5.53;100.00
44297;BME280;51842;47.450;8.654;2023-03-26T06:31:40;94610.47;;;5.53;100.00
44297;BME280;51842;47.450;8.654;2023-03-26T06:34:07;94613.66;;;5.55;100.00
44297;BME280;51842;47.450;8.654;2023-03-26T06:36:33;94616.81;;;5.57;100.00
44297;BME280;51842;47.450;8.654;2023-03-26T06:38:59;94630.59;;;5.59;100.00
44297;BME280;51842;47.450;8.654;2023-03-26T06:41:25;94630.06;;;5.62;100.00
44297;BME280;51842;47.450;8.654;2023-03-26T06:43:51;94624.81;;;5.67;100.00
44297;BME280;51842;47.450;8.654;2023-03-26T06:46:17;94633.28;;;5.69;100.00
44297;BME280;51842;47.450;8.654;2023-03-26T06:48:45;94641.47;;;5.68;100.00
44297;BME280;51842;47.450;8.654;2023-03-26T06:51:11;94649.91;;;5.70;100.00
44297;BME280;51842;47.450;8.654;2023-03-26T06:53:37;94647.28;;;5.70;100.00
44297;BME280;51842;47.450;8.654;2023-03-26T06:56:03;94651.25;;;5.67;100.00
44297;BME280;51842;47.450;8.654;2023-03-26T06:58:29;94650.44;;;5.67;100.00
44297;BME280;51842;47.450;8.654;2023-03-26T07:00:56;94644.63;;;5.65;100.00
44297;BME280;51842;47.450;8.654;2023-03-26T07:03:22;94626.63;;;5.62;100.00
44297;BME280;51842;47.450;8.654;2023-03-26T07:05:48;94618.69;;;5.56;100.00
44297;BME280;51842;47.450;8.654;2023-03-26T07:08:15;94616.31;;;5.55;100.00
44297;BME280;51842;47.450;8.654;2023-03-26T07:10:41;94611.25;;;5.53;100.00
44297;BME280;51842;47.450;8.654;2023-03-26T07:13:07;94612.03;;;5.49;100.00
44297;BME280;51842;47.450;8.654;2023-03-26T07:15:33;94606.47;;;5.45;100.00
44297;BME280;51842;47.450;8.654;2023-03-26T07:17:59;94604.88;;;5.44;100.00
44297;BME280;51842;47.450;8.654;2023-03-26T07:20:25;94614.41;;;5.45;100.00
44297;BME280;51842;47.450;8.654;2023-03-26T07:22:52;94605.16;;;5.48;100.00
44297;BME280;51842;47.450;8.654;2023-03-26T07:25:19;94591.97;;;5.53;100.00
44297;BME280;51842;47.450;8.654;2023-03-26T07:31:29;94609.72;;;5.63;100.00
44297;BME280;51842;47.450;8.654;2023-03-26T07:40:47;94582.03;;;5.70;100.00
44297;BME280;51842;47.450;8.654;2023-03-26T07:46:37;94578.53;;;5.60;100.00
44297;BME280;51842;47.450;8.654;2023-03-26T07:49:05;94579.31;;;5.60;100.00
44297;BME280;51842;47.450;8.654;2023-03-26T07:51:32;94569.84;;;5.64;100.00
44297;BME280;51842;47.450;8.654;2023-03-26T07:53:58;94568.81;;;5.70;100.00
44297;BME280;51842;47.450;8.654;2023-03-26T08:05:47;94554.28;;;5.73;100.00
44297;BME280;51842;47.450;8.654;2023-03-26T08:08:47;94556.13;;;5.72;100.00
44297;BME280;51842;47.450;8.654;2023-03-26T08:17:53;94535.25;;;5.71;100.00
44297;BME280;51842;47.450;8.654;2023-03-26T08:20:48;94536.06;;;5.71;100.00
44297;BME280;51842;47.450;8.654;2023-03-26T08:32:28;94542.13;;;5.72;100.00
44297;BME280;51842;47.450;8.654;2023-03-26T08:34:54;94550.59;;;5.79;100.00
44297;BME280;51842;47.450;8.654;2023-03-26T08:37:22;94539.78;;;5.86;100.00
44297;BME280;51842;47.450;8.654;2023-03-26T08:39:48;94540.31;;;5.83;100.00
44297;BME280;51842;47.450;8.654;2023-03-26T08:52:42;94528.44;;;5.80;100.00
44297;BME280;51842;47.450;8.654;2023-03-26T08:55:51;94530.03;;;5.86;100.00
44297;BME280;51842;47.450;8.654;2023-03-26T09:24:59;94547.78;;;6.01;100.00
44297;BME280;51842;47.450;8.654;2023-03-26T09:40:18;94562.94;;;7.18;100.00
44297;BME280;51842;47.450;8.654;2023-03-26T09:43:28;94578.78;;;7.38;100.00
44297;BME280;51842;47.450;8.654;2023-03-26T10:05:57;94593.13;;;8.13;95.56
44297;BME280;51842;47.450;8.654;2023-03-26T10:21:06;94586.91;;;8.77;85.37
44297;BME280;51842;47.450;8.654;2023-03-26T10:30:34;94585.56;;;9.14;85.32
44297;BME280;51842;47.450;8.654;2023-03-26T10:39:33;94577.69;;;9.33;82.23
44297;BME280;51842;47.450;8.654;2023-03-26T10:52:12;94569.84;;;9.46;82.93
44297;BME280;51842;47.450;8.654;2023-03-26T10:58:22;94573.38;;;9.66;84.64
44297;BME280;51842;47.450;8.654;2023-03-26T11:03:55;94554.63;;;9.76;82.91
44297;BME280;51842;47.450;8.654;2023-03-26T11:06:33;94558.94;;;9.72;83.17
44297;BME280;51842;47.450;8.654;2023-03-26T11:09:27;94554.25;;;10.07;82.41
44297;BME280;51842;47.450;8.654;2023-03-26T11:12:40;94558.56;;;10.27;80.94
44297;BME280;51842;47.450;8.654;2023-03-26T11:15:31;94561.16;;;10.32;79.08
44297;BME280;51842;47.450;8.654;2023-03-26T11:24:45;94549.22;;;10.48;77.41
44297;BME280;51842;47.450;8.654;2023-03-26T11:33:10;94538.88;;;11.12;73.20
44297;BME280;51842;47.450;8.654;2023-03-26T11:35:47;94531.97;;;11.25;71.57
44297;BME280;51842;47.450;8.654;2023-03-26T11:38:37;94529.22;;;11.30;70.31
44297;BME280;51842;47.450;8.654;2023-03-26T11:41:27;94530.41;;;11.24;69.45
44297;BME280;51842;47.450;8.654;2023-03-26T11:44:23;94526.88;;;11.28;69.69
44297;BME280;51842;47.450;8.654;2023-03-26T11:47:00;94524.13;;;11.47;68.62
44297;BME280;51842;47.450;8.654;2023-03-26T11:49:29;94519.28;;;11.63;64.37
44297;BME280;51842;47.450;8.654;2023-03-26T11:51:56;94509.78;;;11.43;64.26
44297;BME280;51842;47.450;8.654;2023-03-26T11:54:22;94509.00;;;11.70;63.22
44297;BME280;51842;47.450;8.654;2023-03-26T11:57:03;94503.38;;;11.72;61.96
44297;BME280;51842;47.450;8.654;2023-03-26T12:04:43;94513.34;;;12.08;62.28
44297;BME280;51842;47.450;8.654;2023-03-26T12:07:31;94498.63;;;11.96;62.47
44297;BME280;51842;47.450;8.654;2023-03-26T12:10:03;94483.88;;;12.13;62.04
44297;BME280;51842;47.450;8.654;2023-03-26T12:12:41;94488.06;;;12.41;62.00
44297;BME280;51842;47.450;8.654;2023-03-26T12:15:19;94483.06;;;12.71;60.69
44297;BME280;51842;47.450;8.654;2023-03-26T12:17:51;94482.72;;;12.86;61.91
44297;BME280;51842;47.450;8.654;2023-03-26T12:22:52;94486.34;;;12.68;62.05
44297;BME280;51842;47.450;8.654;2023-03-26T12:25:38;94473.78;;;12.46;60.89
44297;BME280;51842;47.450;8.654;2023-03-26T12:31:03;94464.38;;;11.48;61.57
44297;BME280;51842;47.450;8.654;2023-03-26T12:33:33;94458.84;;;11.17;67.30
44297;BME280;51842;47.450;8.654;2023-03-26T12:36:24;94462.03;;;10.86;64.27
44297;BME280;51842;47.450;8.654;2023-03-26T12:38:52;94458.09;;;10.51;65.53
44297;BME280;51842;47.450;8.654;2023-03-26T12:41:39;94465.13;;;10.28;68.58
44297;BME280;51842;47.450;8.654;2023-03-26T12:49:35;94454.00;;;9.64;74.73
44297;BME280;51842;47.450;8.654;2023-03-26T12:55:39;94441.34;;;10.97;77.19
44297;BME280;51842;47.450;8.654;2023-03-26T13:19:22;94398.94;;;14.05;56.94
44297;BME280;51842;47.450;8.654;2023-03-26T13:28:14;94374.75;;;12.96;57.19
44297;BME280;51842;47.450;8.654;2023-03-26T13:31:04;94367.06;;;12.94;59.20
44297;BME280;51842;47.450;8.654;2023-03-26T13:48:30;94337.84;;;11.91;62.29
44297;BME280;51842;47.450;8.654;2023-03-26T13:51:20;94332.44;;;11.82;64.18
44297;BME280;51842;47.450;8.654;2023-03-26T13:54:34;94323.81;;;11.63;63.98
44297;BME280;51842;47.450;8.654;2023-03-26T13:57:23;94320.19;;;11.45;61.64
44297;BME280;51842;47.450;8.654;2023-03-26T14:02:54;94326.78;;;10.97;64.36
44297;BME280;51842;47.450;8.654;2023-03-26T14:05:28;94335.53;;;10.84;65.08
44297;BME280;51842;47.450;8.654;2023-03-26T14:08:42;94325.69;;;10.71;65.74
44297;BME280;51842;47.450;8.654;2023-03-26T14:11:44;94350.56;;;10.33;69.67
44297;BME280;51842;47.450;8.654;2023-03-26T14:14:19;94343.63;;;10.00;70.33
44297;BME280;51842;47.450;8.654;2023-03-26T14:17:16;94353.88;;;9.73;72.83
44297;BME280;51842;47.450;8.654;2023-03-26T14:20:00;94350.44;;;9.35;69.36
44297;BME280;51842;47.450;8.654;2023-03-26T14:23:22;94364.22;;;9.18;70.06
44297;BME280;51842;47.450;8.654;2023-03-26T14:32:26;94400.16;;;8.63;73.75
44297;BME280;51842;47.450;8.654;2023-03-26T14:47:25;94508.16;;;5.96;97.55
44297;BME280;51842;47.450;8.654;2023-03-26T14:50:25;94511.75;;;5.74;98.80
44297;BME280;51842;47.450;8.654;2023-03-26T14:53:09;94535.97;;;5.51;100.00
44297;BME280;51842;47.450;8.654;2023-03-26T14:56:15;94525.91;;;5.43;100.00
44297;BME280;51842;47.450;8.654;2023-03-26T15:37:03;94542.44;;;5.80;98.86
44297;BME280;51842;47.450;8.654;2023-03-26T15:43:15;94527.38;;;5.91;98.48
44297;BME280;51842;47.450;8.654;2023-03-26T15:45:51;94526.91;;;5.99;99.20
44297;BME280;51842;47.450;8.654;2023-03-26T15:55:01;94548.06;;;6.05;98.89
44297;BME280;51842;47.450;8.654;2023-03-26T16:00:32;94563.94;;;5.99;96.77
44297;BME280;51842;47.450;8.654;2023-03-26T16:06:51;94576.34;;;5.99;95.08
44297;BME280;51842;47.450;8.654;2023-03-26T16:09:51;94642.13;;;5.95;97.14
44297;BME280;51842;47.450;8.654;2023-03-26T16:18:44;94670.03;;;3.37;98.64
44297;BME280;51842;47.450;8.654;2023-03-26T16:32:46;94668.00;;;3.06;100.00
44297;BME280;51842;47.450;8.654;2023-03-26T16:38:09;94595.81;;;3.18;100.00
44297;BME280;51842;47.450;8.654;2023-03-26T16:41:02;94600.28;;;3.18;100.00
44297;BME280;51842;47.450;8.654;2023-03-26T16:47:07;94590.38;;;3.25;100.00
44297;BME280;51842;47.450;8.654;2023-03-26T16:59:00;94600.88;;;3.42;100.00
44297;BME280;51842;47.450;8.654;2023-03-26T17:01:56;94604.84;;;3.44;100.00
44297;BME280;51842;47.450;8.654;2023-03-26T17:04:31;94611.84;;;3.56;100.00
44297;BME280;51842;47.450;8.654;2023-03-26T17:07:36;94608.22;;;3.62;100.00
44297;BME280;51842;47.450;8.654;2023-03-26T17:10:29;94605.13;;;3.65;100.00
44297;BME280;51842;47.450;8.654;2023-03-26T17:14:11;94594.47;;;3.77;100.00
44297;BME280;51842;47.450;8.654;2023-03-26T17:27:46;94586.41;;;3.66;100.00
44297;BME280;51842;47.450;8.654;2023-03-26T17:31:04;94578.34;;;3.73;100.00
44297;BME280;51842;47.450;8.654;2023-03-26T17:33:38;94586.41;;;3.66;99.27
44297;BME280;51842;47.450;8.654;2023-03-26T17:36:21;94589.53;;;3.63;99.80
44297;BME280;51842;47.450;8.654;2023-03-26T17:39:16;94579.44;;;3.55;100.00
44297;BME280;51842;47.450;8.654;2023-03-26T17:45:15;94572.06;;;3.35;100.00
44297;BME280;51842;47.450;8.654;2023-03-26T17:47:57;94571.47;;;3.28;100.00
44297;BME280;51842;47.450;8.654;2023-03-26T17:51:39;94581.19;;;3.28;100.00
44297;BME280;51842;47.450;8.654;2023-03-26T17:54:23;94580.31;;;3.22;100.00
44297;BME280;51842;47.450;8.654;2023-03-26T17:56:54;94580.75;;;3.14;100.00
44297;BME280;51842;47.450;8.654;2023-03-26T17:59:27;94573.53;;;3.04;100.00
44297;BME280;51842;47.450;8.654;2023-03-26T18:02:00;94576.16;;;3.04;100.00
44297;BME280;51842;47.450;8.654;2023-03-26T18:04:52;94566.41;;;3.05;100.00
44297;BME280;51842;47.450;8.654;2023-03-26T18:13:56;94567.91;;;3.17;100.00
44297;BME280;51842;47.450;8.654;2023-03-26T18:19:24;94574.19;;;3.16;100.00
44297;BME280;51842;47.450;8.654;2023-03-26T18:22:03;94566.06;;;3.18;100.00
44297;BME280;51842;47.450;8.654;2023-03-26T18:24:37;94566.63;;;3.20;100.00
44297;BME280;51842;47.450;8.654;2023-03-26T18:27:14;94577.69;;;3.22;100.00
44297;BME280;51842;47.450;8.654;2023-03-26T18:29:59;94578.97;;;3.19;100.00
44297;BME280;51842;47.450;8.654;2023-03-26T18:32:30;94581.13;;;3.22;100.00
44297;BME280;51842;47.450;8.654;2023-03-26T18:35:18;94583.81;;;3.28;100.00
44297;BME280;51842;47.450;8.654;2023-03-26T18:37:49;94574.66;;;3.30;100.00
44297;BME280;51842;47.450;8.654;2023-03-26T18:40:26;94573.38;;;3.33;100.00
44297;BME280;51842;47.450;8.654;2023-03-26T18:42:57;94574.16;;;3.33;100.00
44297;BME280;51842;47.450;8.654;2023-03-26T18:45:35;94570.50;;;3.34;100.00
44297;BME280;51842;47.450;8.654;2023-03-26T18:50:50;94564.16;;;3.35;100.00
44297;BME280;51842;47.450;8.654;2023-03-26T18:53:26;94561.31;;;3.37;100.00
44297;BME280;51842;47.450;8.654;2023-03-26T18:55:56;94562.09;;;3.37;100.00
44297;BME280;51842;47.450;8.654;2023-03-26T18:58:39;94556.91;;;3.42;100.00
44297;BME280;51842;47.450;8.654;2023-03-26T19:01:09;94555.63;;;3.45;100.00
44297;BME280;51842;47.450;8.654;2023-03-26T19:03:40;94557.44;;;3.44;100.00
44297;BME280;51842;47.450;8.654;2023-03-26T19:06:13;94553.53;;;3.47;100.00
44297;BME280;51842;47.450;8.654;2023-03-26T19:08:44;94554.31;;;3.47;100.00
44297;BME280;51842;47.450;8.654;2023-03-26T19:11:15;94556.72;;;3.49;100.00
44297;BME280;51842;47.450;8.654;2023-03-26T19:13:43;94548.84;;;3.49;100.00
44297;BME280;51842;47.450;8.654;2023-03-26T19:16:23;94547.78;;;3.50;100.00
44297;BME280;51842;47.450;8.654;2023-03-26T19:18:52;94553.13;;;3.55;100.00
44297;BME280;51842;47.450;8.654;2023-03-26T19:21:20;94550.22;;;3.57;100.00
44297;BME280;51842;47.450;8.654;2023-03-26T19:23:51;94551.75;;;3.53;100.00
44297;BME280;51842;47.450;8.654;2023-03-26T19:26:19;94546.28;;;3.54;100.00
44297;BME280;51842;47.450;8.654;2023-03-26T19:28:54;94546.56;;;3.58;100.00
44297;BME280;51842;47.450;8.654;2023-03-26T19:31:31;94544.25;;;3.61;100.00
44297;BME280;51842;47.450;8.654;2023-03-26T19:36:53;94537.19;;;3.67;100.00
44297;BME280;51842;47.450;8.654;2023-03-26T19:39:34;94529.81;;;3.69;100.00
44297;BME280;51842;47.450;8.654;2023-03-26T19:42:05;94534.38;;;3.74;100.00
44297;BME280;51842;47.450;8.654;2023-03-26T19:44:36;94531.25;;;3.77;100.00
44297;BME280;51842;47.450;8.654;2023-03-26T19:47:29;94530.75;;;3.80;100.00
44297;BME280;51842;47.450;8.654;2023-03-26T19:49:59;94525.50;;;3.85;100.00
44297;BME280;51842;47.450;8.654;2023-03-26T19:52:37;94531.56;;;3.85;100.00
44297;BME280;51842;47.450;8.654;2023-03-26T19:57:33;94529.00;;;3.90;99.58
44297;BME280;51842;47.450;8.654;2023-03-26T20:00:04;94536.41;;;3.93;99.38